Time;durP1;ratioP1;P1;durP2;ratioP2;P2;SDS_P1;SDS_P2;PMS_P1;PMS_P2;Temp;Humidity;BMP_temperature;BMP_pressure;BME280_temperature;BME280_humidity;BME280_pressure;Samples;Min_cycle;Max_cycle;Signal;HPM_P1;HPM_P2
2022/10/28 00:01:12;;;;;;;5.82;2.70;;;11.90;90.90;;;;;;5015564;28;20195;-67
2022/10/28 00:03:41;;;;;;;4.07;2.88;;;11.90;90.50;;;;;;5015036;28;20191;-67
2022/10/28 00:06:10;;;;;;;8.82;2.63;;;11.90;90.40;;;;;;5015703;28;20200;-68
2022/10/28 00:08:38;;;;;;;4.38;3.25;;;11.90;90.40;;;;;;5014521;28;20709;-67
2022/10/28 00:11:07;;;;;;;7.32;4.13;;;11.90;90.50;;;;;;5015592;28;20195;-67
2022/10/28 00:13:36;;;;;;;7.38;3.20;;;11.90;90.60;;;;;;5015173;28;20269;-67
2022/10/28 00:16:09;;;;;;;5.15;3.10;;;11.80;90.60;;;;;;5015600;28;20202;-68
2022/10/28 00:18:37;;;;;;;8.13;3.60;;;11.80;90.50;;;;;;5015029;28;20192;-69
2022/10/28 00:21:06;;;;;;;5.80;3.92;;;11.80;90.40;;;;;;5003606;28;20239;-67
2022/10/28 00:23:34;;;;;;;4.72;2.80;;;11.70;90.20;;;;;;4995118;28;20185;-67
2022/10/28 00:26:12;;;;;;;10.23;3.75;;;11.70;90.00;;;;;;4995699;28;20207;-67
2022/10/28 00:28:45;;;;;;;7.28;3.05;;;11.60;90.20;;;;;;4995277;28;20694;-66
2022/10/28 00:31:14;;;;;;;5.25;2.70;;;11.50;90.30;;;;;;4995595;28;20231;-67
2022/10/28 00:33:42;;;;;;;5.05;2.72;;;11.40;90.20;;;;;;4994973;28;20241;-67
2022/10/28 00:36:11;;;;;;;3.92;2.97;;;11.40;90.40;;;;;;4995263;28;20193;-67
2022/10/28 00:38:38;;;;;;;4.30;2.85;;;11.40;90.70;;;;;;4994730;28;20552;-66
2022/10/28 00:41:06;;;;;;;6.35;2.90;;;11.40;90.80;;;;;;4995360;28;20279;-67
2022/10/28 00:43:38;;;;;;;6.45;2.55;;;11.40;91.00;;;;;;4994456;28;20193;-68
2022/10/28 00:46:18;;;;;;;7.10;2.90;;;11.40;90.90;;;;;;4995280;28;20516;-66
2022/10/28 00:48:50;;;;;;;8.70;3.10;;;11.40;91.30;;;;;;4994111;28;20315;-67
2022/10/28 00:51:21;;;;;;;8.57;2.85;;;11.40;90.70;;;;;;4994862;28;20192;-67
2022/10/28 00:53:51;;;;;;;8.27;2.83;;;11.40;90.30;;;;;;4994408;28;20200;-67
2022/10/28 00:56:19;;;;;;;4.10;2.97;;;11.30;90.00;;;;;;4995391;28;20631;-66
2022/10/28 00:58:48;;;;;;;8.10;2.45;;;11.10;90.00;;;;;;4993932;28;20212;-67
2022/10/28 01:01:17;;;;;;;4.97;2.42;;;11.10;90.20;;;;;;4995009;28;20711;-67
2022/10/28 01:03:46;;;;;;;3.83;2.58;;;11.00;90.60;;;;;;4993417;28;20195;-66
2022/10/28 01:06:14;;;;;;;4.00;2.90;;;11.00;90.90;;;;;;4994022;28;20223;-67
2022/10/28 01:08:41;;;;;;;5.57;3.22;;;11.00;90.60;;;;;;4993976;28;20223;-67
2022/10/28 01:11:30;;;;;;;3.92;2.63;;;10.90;90.50;;;;;;4994577;28;20192;-68
2022/10/28 01:14:35;;;;;;;5.90;2.85;;;10.90;90.60;;;;;;4994078;28;20199;-67
2022/10/28 01:17:19;;;;;;;5.65;2.17;;;10.90;90.70;;;;;;4945441;28;20283;-66
2022/10/28 01:20:07;;;;;;;3.60;2.17;;;10.80;90.80;;;;;;4995114;28;20311;-67
2022/10/28 01:22:39;;;;;;;5.72;3.13;;;10.80;90.90;;;;;;5014284;28;20195;-67
2022/10/28 01:25:37;;;;;;;3.75;2.50;;;10.90;91.30;;;;;;5013513;28;20549;-67
2022/10/28 01:28:37;;;;;;;5.45;2.97;;;10.90;91.50;;;;;;4995976;28;20224;-67
2022/10/28 01:31:20;;;;;;;6.32;2.30;;;10.90;91.20;;;;;;4983361;28;20187;-70
2022/10/28 01:33:54;;;;;;;6.32;2.35;;;10.90;91.10;;;;;;5013595;28;20299;-68
2022/10/28 01:36:32;;;;;;;3.55;1.83;;;10.80;91.00;;;;;;5013699;28;20634;-67
2022/10/28 01:39:11;;;;;;;6.03;2.22;;;10.80;90.70;;;;;;5013356;28;20510;-67
2022/10/28 01:41:48;;;;;;;3.88;2.55;;;10.80;90.90;;;;;;5013942;28;20192;-67
2022/10/28 01:44:25;;;;;;;8.10;2.58;;;10.90;91.10;;;;;;5013291;28;20574;-67
2022/10/28 01:47:00;;;;;;;6.78;2.05;;;10.90;90.90;;;;;;5013281;28;20196;-67
2022/10/28 01:49:33;;;;;;;4.78;2.80;;;10.80;90.80;;;;;;5013299;28;20685;-67
2022/10/28 01:52:05;;;;;;;4.57;2.22;;;10.80;90.80;;;;;;5012894;28;20569;-67
2022/10/28 01:54:34;;;;;;;5.47;2.28;;;10.80;90.80;;;;;;5013368;28;20626;-67
2022/10/28 01:57:04;;;;;;;7.53;2.33;;;10.80;91.10;;;;;;5013491;28;20537;-67
2022/10/28 01:59:34;;;;;;;3.78;2.15;;;10.80;91.40;;;;;;5013534;28;20354;-67
2022/10/28 02:02:03;;;;;;;4.45;3.10;;;10.90;91.50;;;;;;5012860;28;20658;-67
2022/10/28 02:04:30;;;;;;;3.22;1.80;;;10.90;91.40;;;;;;4993535;28;20203;-67
2022/10/28 02:07:00;;;;;;;5.68;2.90;;;10.90;91.00;;;;;;5000001;28;20187;-67
2022/10/28 02:09:44;;;;;;;8.75;3.10;;;10.90;91.30;;;;;;5012785;28;20227;-68
2022/10/28 02:12:24;;;;;;;7.95;5.10;;;10.90;91.40;;;;;;5012335;28;20220;-67
2022/10/28 02:15:14;;;;;;;7.22;4.75;;;10.90;91.30;;;;;;5013272;28;20291;-67
2022/10/28 02:17:56;;;;;;;6.75;3.38;;;10.90;91.40;;;;;;5012520;28;20196;-66
2022/10/28 02:20:33;;;;;;;4.07;2.72;;;11.00;91.50;;;;;;5006769;28;20220;-67
2022/10/28 02:23:11;;;;;;;4.60;3.20;;;11.00;91.50;;;;;;4992835;28;20196;-67
2022/10/28 02:25:45;;;;;;;5.15;3.15;;;11.00;91.70;;;;;;4993429;28;20192;-67
2022/10/28 02:28:18;;;;;;;6.47;3.72;;;11.00;91.90;;;;;;4990911;28;20219;-67
2022/10/28 02:30:49;;;;;;;4.90;3.55;;;11.10;91.80;;;;;;4990743;28;20189;-67
2022/10/28 02:33:23;;;;;;;4.68;3.17;;;11.10;91.70;;;;;;4993441;28;20260;-66
2022/10/28 02:35:54;;;;;;;6.80;2.80;;;11.10;91.60;;;;;;4992636;28;20276;-67
2022/10/28 02:38:28;;;;;;;4.22;2.50;;;11.00;91.30;;;;;;4993289;28;20203;-67
2022/10/28 02:40:59;;;;;;;6.90;2.25;;;11.00;91.00;;;;;;4992796;28;20195;-68
2022/10/28 02:43:30;;;;;;;3.63;2.10;;;10.90;90.90;;;;;;4993196;28;20199;-67
2022/10/28 02:46:00;;;;;;;4.95;2.40;;;10.90;91.00;;;;;;4992657;28;20267;-67
2022/10/28 02:48:35;;;;;;;5.60;2.60;;;10.80;91.00;;;;;;4992874;28;20695;-68
2022/10/28 02:51:07;;;;;;;6.45;2.67;;;10.80;90.90;;;;;;4992436;28;20180;-67
2022/10/28 02:53:45;;;;;;;6.53;2.75;;;10.80;90.80;;;;;;4992900;28;20215;-67
2022/10/28 02:56:16;;;;;;;6.68;2.20;;;10.70;90.70;;;;;;4991686;28;20192;-67
2022/10/28 02:58:45;;;;;;;5.10;3.70;;;10.60;90.60;;;;;;4992322;28;20196;-69
2022/10/28 03:01:12;;;;;;;3.33;2.08;;;10.60;90.70;;;;;;4992766;28;20200;-67
2022/10/28 03:03:41;;;;;;;5.45;2.58;;;10.60;90.90;;;;;;4992341;28;20199;-67
2022/10/28 03:06:09;;;;;;;6.88;3.00;;;10.50;91.20;;;;;;4992600;28;20576;-66
2022/10/28 03:08:40;;;;;;;4.15;2.50;;;10.50;91.30;;;;;;4991981;28;20212;-67
2022/10/28 03:11:07;;;;;;;7.80;2.88;;;10.40;91.50;;;;;;4992438;28;20188;-67
2022/10/28 03:13:34;;;;;;;11.80;3.28;;;10.40;91.40;;;;;;4992513;28;20189;-67
2022/10/28 03:16:01;;;;;;;8.48;4.53;;;10.40;91.40;;;;;;4992509;28;20196;-67
2022/10/28 03:18:29;;;;;;;6.95;3.00;;;10.40;91.50;;;;;;4992073;28;20193;-67
2022/10/28 03:20:58;;;;;;;5.60;3.10;;;10.40;91.60;;;;;;4992289;28;20224;-67
2022/10/28 03:23:25;;;;;;;3.85;2.90;;;10.40;91.60;;;;;;4992482;28;20231;-67
2022/10/28 03:25:52;;;;;;;8.25;3.60;;;10.30;91.70;;;;;;4992767;28;20200;-67
2022/10/28 03:28:19;;;;;;;5.88;3.90;;;10.20;91.90;;;;;;4991842;28;20244;-67
2022/10/28 03:30:46;;;;;;;5.97;3.28;;;10.20;92.10;;;;;;4992506;28;20252;-67
2022/10/28 03:33:20;;;;;;;8.40;5.00;;;10.20;92.00;;;;;;4992138;28;20200;-66
2022/10/28 03:35:47;;;;;;;8.43;4.05;;;10.10;92.30;;;;;;4992402;28;20232;-67
2022/10/28 03:38:16;;;;;;;7.50;4.38;;;10.20;92.40;;;;;;4992143;28;20600;-66
2022/10/28 03:40:43;;;;;;;6.70;4.18;;;10.10;92.30;;;;;;4992526;28;20223;-67
2022/10/28 03:43:10;;;;;;;5.63;4.20;;;10.20;92.40;;;;;;4991954;28;20283;-66
2022/10/28 03:45:37;;;;;;;7.35;4.60;;;10.20;92.30;;;;;;4992325;28;20192;-66
2022/10/28 03:48:05;;;;;;;12.25;4.90;;;10.20;92.30;;;;;;4991589;28;20195;-66
2022/10/28 03:50:32;;;;;;;6.47;4.15;;;10.20;92.30;;;;;;4992116;28;20227;-66
2022/10/28 03:53:00;;;;;;;7.72;4.13;;;10.20;92.30;;;;;;4991808;28;20199;-65
2022/10/28 03:55:29;;;;;;;8.65;3.70;;;10.30;92.70;;;;;;4992483;28;20649;-66
2022/10/28 03:58:00;;;;;;;10.50;3.38;;;10.30;92.80;;;;;;4992105;28;20710;-66
2022/10/28 04:00:28;;;;;;;8.30;3.85;;;10.30;92.80;;;;;;4992405;28;20664;-67
2022/10/28 04:02:56;;;;;;;6.78;3.53;;;10.30;93.00;;;;;;4992127;28;20189;-68
2022/10/28 04:05:24;;;;;;;7.53;4.22;;;10.30;92.40;;;;;;4992598;28;20226;-67
2022/10/28 04:07:52;;;;;;;6.70;3.83;;;10.20;92.10;;;;;;4992233;28;20561;-67
2022/10/28 04:10:20;;;;;;;5.15;2.85;;;10.20;92.00;;;;;;4992567;28;20315;-67
2022/10/28 04:12:48;;;;;;;4.97;3.20;;;10.10;91.80;;;;;;4991827;28;20665;-67
2022/10/28 04:15:16;;;;;;;6.93;3.20;;;10.10;92.10;;;;;;4992454;28;20207;-67
2022/10/28 04:17:43;;;;;;;7.45;4.05;;;10.00;92.60;;;;;;4991977;28;20279;-67
2022/10/28 04:20:11;;;;;;;8.15;4.00;;;9.90;93.40;;;;;;4992170;28;20699;-67
2022/10/28 04:22:38;;;;;;;5.32;3.58;;;9.90;93.50;;;;;;4991298;28;20189;-67
2022/10/28 04:25:08;;;;;;;7.85;3.42;;;9.80;93.40;;;;;;4992473;28;20295;-67
2022/10/28 04:27:35;;;;;;;5.38;3.10;;;9.70;93.60;;;;;;4991535;28;20715;-67
2022/10/28 04:30:05;;;;;;;9.77;6.65;;;9.70;93.70;;;;;;4992229;28;20232;-67
2022/10/28 04:32:32;;;;;;;14.00;8.35;;;9.60;94.30;;;;;;4991487;28;20279;-67
2022/10/28 04:35:05;;;;;;;18.48;13.27;;;9.60;94.40;;;;;;4995211;28;20192;-67
2022/10/28 04:37:32;;;;;;;17.05;11.55;;;9.60;94.50;;;;;;4995177;28;20200;-67
2022/10/28 04:39:59;;;;;;;18.67;6.72;;;9.60;94.60;;;;;;4995820;28;20656;-67
2022/10/28 04:42:27;;;;;;;11.63;6.60;;;9.70;95.00;;;;;;4993747;28;20643;-68
2022/10/28 04:44:54;;;;;;;10.77;4.95;;;9.70;95.20;;;;;;4995796;28;20239;-68
2022/10/28 04:47:22;;;;;;;11.07;6.25;;;9.80;95.30;;;;;;4994249;28;20674;-68
2022/10/28 04:49:50;;;;;;;13.68;6.13;;;9.80;95.30;;;;;;4995723;28;20232;-68
2022/10/28 04:52:17;;;;;;;10.65;6.32;;;9.90;95.20;;;;;;4994862;28;20268;-67
2022/10/28 04:54:44;;;;;;;12.80;5.30;;;9.90;95.10;;;;;;4995347;28;20204;-67
2022/10/28 04:57:11;;;;;;;9.52;5.15;;;10.00;94.40;;;;;;4987459;28;20241;-67
2022/10/28 04:59:39;;;;;;;13.07;4.95;;;10.00;94.10;;;;;;4994679;28;20185;-67
2022/10/28 05:02:06;;;;;;;9.65;4.85;;;10.00;93.70;;;;;;4987811;28;20299;-67
2022/10/28 05:04:37;;;;;;;6.95;3.80;;;10.00;93.60;;;;;;4995255;28;20192;-67
2022/10/28 05:07:05;;;;;;;8.68;4.38;;;10.00;93.20;;;;;;4991347;28;20189;-67
2022/10/28 05:09:32;;;;;;;6.97;3.38;;;10.00;92.80;;;;;;4991754;28;20224;-68
2022/10/28 05:12:01;;;;;;;6.78;3.60;;;10.00;92.80;;;;;;4990733;28;20608;-68
2022/10/28 05:14:28;;;;;;;6.38;3.95;;;9.90;93.30;;;;;;4992559;28;20208;-67
2022/10/28 05:16:56;;;;;;;4.45;2.78;;;9.80;93.20;;;;;;4988167;28;20185;-68
2022/10/28 05:19:23;;;;;;;5.68;3.85;;;9.80;93.40;;;;;;4966671;28;20243;-70
2022/10/28 05:21:52;;;;;;;7.30;3.40;;;9.70;93.40;;;;;;5008068;28;20223;-67
2022/10/28 05:24:19;;;;;;;5.07;3.58;;;9.60;93.50;;;;;;5012427;28;20285;-69
2022/10/28 05:26:49;;;;;;;7.18;4.60;;;9.60;93.60;;;;;;5012391;28;20199;-68
2022/10/28 05:29:18;;;;;;;4.63;2.83;;;9.50;93.40;;;;;;5007013;28;20227;-67
2022/10/28 05:31:47;;;;;;;4.80;3.10;;;9.50;93.50;;;;;;5012405;28;20200;-67
2022/10/28 05:34:14;;;;;;;8.35;2.90;;;9.50;93.50;;;;;;5011928;28;20200;-67
2022/10/28 05:36:42;;;;;;;7.82;3.60;;;9.50;93.40;;;;;;5012268;28;20200;-67
2022/10/28 05:39:11;;;;;;;7.22;4.15;;;9.40;93.60;;;;;;5012348;28;20223;-67
2022/10/28 05:41:38;;;;;;;8.60;5.70;;;9.40;93.60;;;;;;5011596;28;20188;-67
2022/10/28 05:44:07;;;;;;;8.40;5.03;;;9.50;93.70;;;;;;5007727;28;20192;-68
2022/10/28 05:46:35;;;;;;;10.48;5.30;;;9.50;93.80;;;;;;5008510;28;20223;-67
2022/10/28 05:49:03;;;;;;;6.85;4.55;;;9.50;93.90;;;;;;5010471;28;20195;-68
2022/10/28 05:51:30;;;;;;;7.15;4.18;;;9.60;93.70;;;;;;5012253;28;20219;-68
2022/10/28 05:53:58;;;;;;;5.82;4.28;;;9.50;93.60;;;;;;5010646;28;20188;-68
2022/10/28 05:56:27;;;;;;;11.07;7.20;;;9.50;93.70;;;;;;5012170;28;20706;-67
2022/10/28 05:58:56;;;;;;;8.48;5.93;;;9.50;93.70;;;;;;5011858;28;20234;-67
2022/10/28 06:01:23;;;;;;;8.60;6.30;;;9.50;93.80;;;;;;5011267;28;20231;-68
2022/10/28 06:03:50;;;;;;;8.82;6.05;;;9.50;93.90;;;;;;5011827;28;20278;-67
2022/10/28 06:06:17;;;;;;;8.60;7.40;;;9.50;94.30;;;;;;5011997;28;20206;-67
2022/10/28 06:08:44;;;;;;;10.90;7.80;;;9.60;94.10;;;;;;5012014;28;20579;-67
2022/10/28 06:11:12;;;;;;;9.90;6.95;;;9.60;94.00;;;;;;5000719;28;20636;-68
2022/10/28 06:13:40;;;;;;;20.40;14.88;;;9.70;94.00;;;;;;5003241;28;20219;-68
2022/10/28 06:16:08;;;;;;;19.35;11.80;;;9.80;94.10;;;;;;5011738;28;20238;-68
2022/10/28 06:18:35;;;;;;;12.45;6.93;;;9.90;94.20;;;;;;5011506;28;20292;-67
2022/10/28 06:21:03;;;;;;;8.25;6.10;;;10.00;93.60;;;;;;5012693;28;20223;-69
2022/10/28 06:23:30;;;;;;;10.90;6.25;;;10.10;93.30;;;;;;5009352;28;20274;-66
2022/10/28 06:25:58;;;;;;;8.55;6.30;;;10.20;93.20;;;;;;5012104;28;20215;-68
2022/10/28 06:28:25;;;;;;;11.82;7.75;;;10.30;93.00;;;;;;5010522;28;20216;-68
2022/10/28 06:30:54;;;;;;;14.75;7.45;;;10.40;92.60;;;;;;5007299;28;20269;-68
2022/10/28 06:33:21;;;;;;;11.07;6.70;;;10.50;92.80;;;;;;5011207;28;20239;-68
2022/10/28 06:35:48;;;;;;;9.95;7.07;;;10.70;93.10;;;;;;5007240;28;20227;-67
2022/10/28 06:38:15;;;;;;;17.48;7.45;;;10.80;92.90;;;;;;5010321;28;20200;-68
2022/10/28 06:40:45;;;;;;;7.22;4.45;;;11.00;92.70;;;;;;5004817;28;20231;-71
2022/10/28 06:43:13;;;;;;;6.10;3.53;;;11.20;92.60;;;;;;4993793;28;20279;-67
2022/10/28 06:45:40;;;;;;;10.02;4.63;;;11.40;92.50;;;;;;5010382;28;20547;-68
2022/10/28 06:48:10;;;;;;;6.22;4.30;;;11.50;92.20;;;;;;5011093;28;20187;-68
2022/10/28 06:50:37;;;;;;;8.32;3.83;;;11.70;92.40;;;;;;5013498;28;20315;-68
2022/10/28 06:53:10;;;;;;;5.88;3.45;;;11.90;92.40;;;;;;5010476;28;20239;-69
2022/10/28 06:55:37;;;;;;;6.97;4.75;;;12.20;92.30;;;;;;5012348;28;20558;-67
2022/10/28 06:58:04;;;;;;;8.27;5.03;;;12.50;92.10;;;;;;5012361;28;20187;-69
2022/10/28 07:00:33;;;;;;;7.40;3.97;;;12.80;91.90;;;;;;5009183;28;20304;-67
2022/10/28 07:03:00;;;;;;;8.85;4.47;;;13.00;90.90;;;;;;5011709;28;20184;-68
2022/10/28 07:05:29;;;;;;;10.02;5.13;;;13.20;90.30;;;;;;5012549;28;20216;-72
2022/10/28 07:07:56;;;;;;;10.63;5.00;;;13.40;90.20;;;;;;5013003;28;20187;-68
2022/10/28 07:10:23;;;;;;;7.82;4.75;;;13.70;90.40;;;;;;5012910;28;20219;-68
2022/10/28 07:12:56;;;;;;;12.03;4.23;;;14.10;90.20;;;;;;5010361;28;20231;-68
2022/10/28 07:15:23;;;;;;;7.63;3.87;;;14.60;87.80;;;;;;5013030;28;20819;-68
2022/10/28 07:17:53;;;;;;;8.57;4.90;;;14.90;84.60;;;;;;5012719;28;20466;-68
2022/10/28 07:20:20;;;;;;;6.97;3.30;;;15.20;81.40;;;;;;5012233;28;20981;-73
2022/10/28 07:22:54;;;;;;;5.00;3.23;;;15.50;81.50;;;;;;5012079;28;20901;-67
2022/10/28 07:25:22;;;;;;;4.73;3.00;;;15.80;80.30;;;;;;5012886;28;20441;-69
2022/10/28 07:27:49;;;;;;;5.13;3.17;;;16.20;80.50;;;;;;5012821;28;20454;-68
2022/10/28 07:30:16;;;;;;;5.90;2.90;;;16.50;77.90;;;;;;5012471;28;20541;-67
2022/10/28 07:32:43;;;;;;;3.67;2.87;;;17.00;76.40;;;;;;5012876;28;20526;-67
2022/10/28 07:35:10;;;;;;;3.73;2.47;;;17.40;75.00;;;;;;5026065;28;20483;-68
2022/10/28 07:37:38;;;;;;;4.63;3.13;;;17.90;72.40;;;;;;5032245;28;20498;-68
2022/10/28 07:40:08;;;;;;;6.30;2.70;;;18.20;71.20;;;;;;5032847;28;20575;-67
2022/10/28 07:42:35;;;;;;;4.50;2.30;;;18.50;69.00;;;;;;5032913;28;20477;-68
2022/10/28 07:45:03;;;;;;;7.20;2.60;;;18.80;67.10;;;;;;5032462;28;20450;-68
2022/10/28 07:47:30;;;;;;;6.10;4.23;;;19.10;66.70;;;;;;5032949;28;20923;-68
2022/10/28 07:49:59;;;;;;;6.00;3.17;;;19.70;62.10;;;;;;5032772;28;20513;-68
2022/10/28 07:52:26;;;;;;;8.00;3.83;;;20.20;61.60;;;;;;5032877;28;20477;-68
2022/10/28 07:54:53;;;;;;;8.57;3.33;;;20.80;59.90;;;;;;5032606;28;20437;-69
2022/10/28 07:57:21;;;;;;;5.70;4.07;;;21.50;58.30;;;;;;5032843;28;20525;-68
2022/10/28 07:59:48;;;;;;;6.43;3.57;;;22.30;55.70;;;;;;5032515;28;21008;-69
2022/10/28 08:02:18;;;;;;;8.57;4.53;;;22.80;53.20;;;;;;5032461;28;20809;-68
2022/10/28 08:04:45;;;;;;;10.13;4.00;;;22.60;52.20;;;;;;5032139;28;20442;-68
2022/10/28 08:07:13;;;;;;;5.53;3.97;;;22.50;53.20;;;;;;5032525;28;20537;-69
2022/10/28 08:09:40;;;;;;;9.13;3.37;;;22.70;52.00;;;;;;5035280;28;20821;-68
2022/10/28 08:12:08;;;;;;;4.77;2.50;;;22.60;51.90;;;;;;5036176;28;20975;-70
2022/10/28 08:14:37;;;;;;;5.93;2.73;;;23.00;52.70;;;;;;5036477;28;20445;-68
2022/10/28 08:17:04;;;;;;;10.30;4.40;;;23.60;52.80;;;;;;5036444;28;20437;-69
2022/10/28 08:19:31;;;;;;;6.10;2.27;;;24.30;52.30;;;;;;5036286;28;20477;-69
2022/10/28 08:21:58;;;;;;;6.90;2.53;;;24.90;49.40;;;;;;5036080;28;20497;-69
2022/10/28 08:24:25;;;;;;;7.60;2.50;;;25.80;47.10;;;;;;5036253;28;20477;-68
2022/10/28 08:26:52;;;;;;;7.77;1.93;;;26.60;45.80;;;;;;5036052;28;20979;-70
2022/10/28 08:29:19;;;;;;;7.60;2.10;;;27.30;42.70;;;;;;5036351;28;20473;-69
2022/10/28 08:31:47;;;;;;;5.47;1.73;;;27.00;41.60;;;;;;5035759;28;20547;-68
2022/10/28 08:34:14;;;;;;;5.57;2.93;;;26.30;42.30;;;;;;5035944;28;20473;-68
2022/10/28 08:36:41;;;;;;;18.07;3.23;;;25.60;43.40;;;;;;5035805;28;20484;-68
2022/10/28 08:39:12;;;;;;;5.40;3.87;;;25.10;45.20;;;;;;5036053;28;20450;-68
2022/10/28 08:41:44;;;;;;;9.83;3.40;;;24.70;46.90;;;;;;5035976;28;20520;-68
2022/10/28 08:44:47;;;;;;;6.83;3.47;;;24.40;47.60;;;;;;5035752;28;20441;-68
2022/10/28 08:47:34;;;;;;;4.63;2.00;;;24.00;48.40;;;;;;5036019;28;20441;-68
2022/10/28 08:50:13;;;;;;;9.80;2.37;;;23.70;49.40;;;;;;5035699;28;20544;-70
2022/10/28 08:52:44;;;;;;;6.73;1.97;;;23.60;50.60;;;;;;5035828;28;20465;-68
2022/10/28 08:55:16;;;;;;;4.63;1.70;;;23.60;51.10;;;;;;5035859;28;20488;-68
2022/10/28 08:57:48;;;;;;;6.00;2.40;;;23.70;51.80;;;;;;5035539;28;20476;-68
2022/10/28 09:00:22;;;;;;;5.40;1.90;;;24.10;51.00;;;;;;5035593;28;20500;-68
2022/10/28 09:03:19;;;;;;;4.90;1.73;;;24.60;51.00;;;;;;5035735;28;20433;-68
2022/10/28 09:05:48;;;;;;;8.07;1.77;;;25.80;49.80;;;;;;5029117;28;20500;-68
2022/10/28 09:08:22;;;;;;;5.87;1.57;;;26.80;47.20;;;;;;5035506;28;20765;-68
2022/10/28 09:11:11;;;;;;;5.93;1.90;;;27.90;44.70;;;;;;5035390;28;20516;-68
2022/10/28 09:13:50;;;;;;;4.90;1.60;;;28.80;42.90;;;;;;5035508;28;20442;-68
2022/10/28 09:16:28;;;;;;;6.27;2.10;;;28.50;42.20;;;;;;5035496;28;20476;-68
2022/10/28 09:18:58;;;;;;;5.73;1.60;;;28.10;41.80;;;;;;5034741;28;20441;-68
2022/10/28 09:21:31;;;;;;;9.70;2.57;;;27.80;42.20;;;;;;5034938;28;20837;-68
2022/10/28 09:23:59;;;;;;;8.23;1.90;;;27.80;42.90;;;;;;5035388;28;20473;-68
2022/10/28 09:26:37;;;;;;;4.90;2.50;;;27.80;42.30;;;;;;5026859;28;20525;-68
2022/10/28 09:29:33;;;;;;;6.10;1.87;;;28.00;41.80;;;;;;5034910;28;20434;-68
2022/10/28 09:32:14;;;;;;;6.97;2.07;;;29.00;40.70;;;;;;5034421;28;20477;-68
2022/10/28 09:34:45;;;;;;;6.83;2.40;;;30.90;39.50;;;;;;5034995;28;20441;-68
2022/10/28 09:37:18;;;;;;;6.20;2.27;;;33.70;35.00;;;;;;5034994;28;20499;-69
2022/10/28 09:39:48;;;;;;;4.97;1.73;;;35.80;30.80;;;;;;5034685;28;20446;-69
2022/10/28 09:42:22;;;;;;;11.07;2.33;;;37.90;27.90;;;;;;5034771;28;20437;-69
2022/10/28 09:44:53;;;;;;;4.93;2.00;;;39.00;25.70;;;;;;5034708;28;20445;-67
2022/10/28 09:47:25;;;;;;;8.23;2.20;;;40.10;24.70;;;;;;5034779;28;20477;-67
2022/10/28 09:49:58;;;;;;;7.47;2.20;;;40.90;23.50;;;;;;5034735;28;20496;-68
2022/10/28 09:52:30;;;;;;;7.53;2.67;;;40.50;22.80;;;;;;5034518;28;20896;-67
2022/10/28 09:54:59;;;;;;;6.40;1.77;;;39.70;23.60;;;;;;5034704;28;20492;-67
2022/10/28 09:57:30;;;;;;;6.60;2.50;;;38.90;23.40;;;;;;5034523;28;20476;-67
2022/10/28 09:59:58;;;;;;;3.67;2.23;;;38.50;24.50;;;;;;5034623;28;20492;-70
2022/10/28 10:02:28;;;;;;;5.20;2.20;;;38.20;24.70;;;;;;5034422;28;20789;-68
2022/10/28 10:04:58;;;;;;;5.63;2.63;;;37.90;25.40;;;;;;5034555;28;20492;-70
2022/10/28 10:07:38;;;;;;;5.77;2.50;;;38.10;25.70;;;;;;5034444;28;20461;-69
2022/10/28 10:10:14;;;;;;;5.30;2.20;;;38.60;25.20;;;;;;5034338;28;20970;-68
2022/10/28 10:12:41;;;;;;;7.83;2.60;;;39.50;24.30;;;;;;5034385;28;20438;-69
2022/10/28 10:15:15;;;;;;;7.23;2.53;;;41.00;24.20;;;;;;5034245;28;20499;-69
2022/10/28 10:17:48;;;;;;;7.47;2.10;;;42.30;23.20;;;;;;5034446;28;20912;-69
2022/10/28 10:20:19;;;;;;;5.30;2.70;;;44.00;21.60;;;;;;5033876;28;20488;-70
2022/10/28 10:22:51;;;;;;;4.53;2.30;;;45.40;19.80;;;;;;5033963;28;20836;-69
2022/10/28 10:25:28;;;;;;;4.00;2.00;;;46.60;18.70;;;;;;5034074;28;20496;-69
2022/10/28 10:27:59;;;;;;;6.67;2.50;;;46.00;16.80;;;;;;5034105;28;20445;-70
2022/10/28 10:30:32;;;;;;;4.53;2.33;;;44.70;19.00;;;;;;5033639;28;20790;-68
2022/10/28 10:33:00;;;;;;;3.40;1.90;;;44.70;19.00;;;;;;5033442;28;20438;-69
2022/10/28 10:35:30;;;;;;;5.40;2.23;;;44.00;18.40;;;;;;5033891;28;20481;-69
2022/10/28 10:37:59;;;;;;;4.40;2.10;;;42.60;19.80;;;;;;5033743;28;20477;-69
2022/10/28 10:40:30;;;;;;;11.77;2.00;;;41.30;20.40;;;;;;5025255;28;20495;-68
2022/10/28 10:43:19;;;;;;;3.53;1.30;;;40.40;21.60;;;;;;5033510;28;20438;-69
2022/10/28 10:45:52;;;;;;;3.20;1.40;;;41.00;22.90;;;;;;5033797;28;20442;-68
2022/10/28 10:48:19;;;;;;;6.10;2.17;;;43.20;22.20;;;;;;5033905;28;20438;-69
2022/10/28 10:50:51;;;;;;;4.60;1.90;;;45.30;19.80;;;;;;5033469;28;20512;-69
2022/10/28 10:53:27;;;;;;;4.00;1.50;;;46.60;18.90;;;;;;5033563;28;20753;-69
2022/10/28 10:56:00;;;;;;;3.90;1.80;;;47.80;17.40;;;;;;5033196;28;20441;-70
2022/10/28 10:58:30;;;;;;;4.67;1.53;;;48.70;17.00;;;;;;5033214;28;20434;-69
2022/10/28 11:01:00;;;;;;;4.27;1.40;;;48.90;15.80;;;;;;5033378;28;21026;-69
2022/10/28 11:03:31;;;;;;;4.00;1.67;;;49.50;15.10;;;;;;5033257;28;20468;-73
2022/10/28 11:06:01;;;;;;;3.83;2.20;;;50.40;14.00;;;;;;5033013;28;20430;-69
2022/10/28 11:08:34;;;;;;;2.43;1.20;;;50.80;13.90;;;;;;5025247;28;20434;-69
2022/10/28 11:11:14;;;;;;;3.53;2.40;;;50.80;12.20;;;;;;5033395;28;20442;-69
2022/10/28 11:13:41;;;;;;;4.10;1.60;;;50.50;12.90;;;;;;5033398;28;20475;-69
2022/10/28 11:16:18;;;;;;;3.23;1.50;;;50.00;13.00;;;;;;5033116;28;20508;-69
2022/10/28 11:18:47;;;;;;;4.73;1.47;;;49.50;14.00;;;;;;5033294;28;20851;-69
2022/10/28 11:21:41;;;;;;;3.07;1.23;;;49.50;13.60;;;;;;5032466;28;20529;-70
2022/10/28 11:24:35;;;;;;;4.07;1.47;;;49.50;12.50;;;;;;5032717;28;20429;-68
2022/10/28 11:27:13;;;;;;;4.13;1.50;;;49.60;12.80;;;;;;5019714;28;20507;-69
2022/10/28 11:29:40;;;;;;;3.20;1.90;;;49.40;12.00;;;;;;5033053;28;20441;-70
2022/10/28 11:32:31;;;;;;;3.37;1.33;;;49.10;12.20;;;;;;5032858;28;20480;-69
2022/10/28 11:35:13;;;;;;;5.33;1.40;;;49.90;12.60;;;;;;5033090;28;20496;-71
2022/10/28 11:38:01;;;;;;;8.70;1.53;;;51.00;11.10;;;;;;5033111;28;20449;-69
2022/10/28 11:40:35;;;;;;;2.53;1.20;;;51.00;10.80;;;;;;5032910;28;20445;-69
2022/10/28 11:43:20;;;;;;;5.23;1.17;;;49.50;10.60;;;;;;5034859;28;20488;-69
2022/10/28 11:45:53;;;;;;;3.23;1.40;;;47.80;11.90;;;;;;5037216;28;20503;-69
2022/10/28 11:48:36;;;;;;;4.60;1.57;;;47.20;12.80;;;;;;5036967;28;20909;-69
2022/10/28 11:51:19;;;;;;;2.53;1.40;;;47.20;12.20;;;;;;5036997;28;20496;-69
2022/10/28 11:54:10;;;;;;;4.20;1.60;;;47.90;11.30;;;;;;5037003;28;20437;-69
2022/10/28 11:56:42;;;;;;;2.50;1.27;;;47.30;10.80;;;;;;5020062;28;20465;-69
2022/10/28 11:59:37;;;;;;;6.00;1.60;;;45.60;12.70;;;;;;5036763;28;20441;-69
2022/10/28 12:02:20;;;;;;;5.30;1.60;;;44.10;13.70;;;;;;5036637;28;20485;-69
2022/10/28 12:04:57;;;;;;;2.90;1.00;;;42.80;13.60;;;;;;5036914;28;20535;-68
2022/10/28 12:07:43;;;;;;;3.30;1.13;;;41.40;14.20;;;;;;5036657;28;20539;-70
2022/10/28 12:10:24;;;;;;;7.13;1.50;;;40.60;15.00;;;;;;5036612;28;20437;-68
2022/10/28 12:12:59;;;;;;;6.73;1.90;;;40.40;16.50;;;;;;5036758;28;20480;-68
2022/10/28 12:15:32;;;;;;;2.97;1.33;;;40.20;16.60;;;;;;5028487;28;20437;-68
2022/10/28 12:18:08;;;;;;;3.90;1.30;;;39.80;18.50;;;;;;5036048;28;20441;-68
2022/10/28 12:20:41;;;;;;;4.37;1.43;;;39.10;18.60;;;;;;5035698;28;20527;-68
2022/10/28 12:23:12;;;;;;;4.70;1.20;;;38.60;17.70;;;;;;5036090;28;20528;-68
2022/10/28 12:25:44;;;;;;;4.73;1.53;;;38.70;19.30;;;;;;5036439;28;20442;-68
2022/10/28 12:28:19;;;;;;;4.07;1.40;;;39.80;18.80;;;;;;5036042;28;20478;-69
2022/10/28 12:30:48;;;;;;;4.93;1.67;;;41.30;17.40;;;;;;5035998;28;20498;-68
2022/10/28 12:33:19;;;;;;;4.50;1.60;;;42.40;16.00;;;;;;5036212;28;20766;-69
2022/10/28 12:35:50;;;;;;;5.77;1.60;;;43.10;15.80;;;;;;5036178;28;20441;-69
2022/10/28 12:38:23;;;;;;;4.10;1.60;;;43.70;14.20;;;;;;5036297;28;20779;-68
2022/10/28 12:40:56;;;;;;;2.80;1.13;;;44.10;13.80;;;;;;5036232;28;20836;-69
2022/10/28 12:43:30;;;;;;;4.63;1.03;;;44.30;13.30;;;;;;5036142;28;20527;-69
2022/10/28 12:45:57;;;;;;;3.13;1.40;;;44.40;14.10;;;;;;5036055;28;20434;-69
2022/10/28 12:48:31;;;;;;;8.30;2.13;;;44.50;13.80;;;;;;5035936;28;20503;-69
2022/10/28 12:51:05;;;;;;;3.40;1.30;;;44.50;12.50;;;;;;5035815;28;20500;-69
2022/10/28 12:53:36;;;;;;;4.73;1.83;;;44.30;12.50;;;;;;5035428;28;20447;-68
2022/10/28 12:56:09;;;;;;;6.00;1.50;;;44.10;13.30;;;;;;5035304;28;20473;-69
2022/10/28 12:58:39;;;;;;;4.93;1.37;;;44.30;12.20;;;;;;5035484;28;20484;-69
2022/10/28 13:01:10;;;;;;;7.70;1.40;;;44.30;12.40;;;;;;5035577;28;20448;-68
2022/10/28 13:03:37;;;;;;;6.53;1.60;;;44.30;12.20;;;;;;5035711;28;20442;-68
2022/10/28 13:06:30;;;;;;;4.03;1.53;;;44.10;12.60;;;;;;5034858;28;20536;-69
2022/10/28 13:09:25;;;;;;;3.10;1.33;;;43.90;12.50;;;;;;5035628;28;20899;-68
2022/10/28 13:12:22;;;;;;;5.90;2.30;;;43.70;12.20;;;;;;5035436;28;20433;-69